Airfield :
LOGIN :

Register | Disclaimer

   EN    FR    IT 

 










Legend :    VFR   Marginal VFR   IFR   Intensive IFR   Very Intensive IFR
Visi :
Ceiling :
>= 8 km
>= 3000ft
5 to 8 km
1000 to 3000 ft
1500m to 5 km
500 to 1000 ft
800 to 1500m
200 to 500 ft
< 800m
< 200 ft
Symbols :   Thunderstorms  Fog  Heavy snow  Heavy precipitations  Wind > 20 kt
SIGMETs :     Misc.  Thunderstorms  Icing  Turbulence  Mountain Waves  Volcanic Ashes






- Airport Elevation : 142 ft
- IATA code : ALC


LEAL - Alicante

CURRENT METAR :
  • 011400Z 10006KT 070V130 9999 -RA FEW020 SCT030 15/12 Q1012 NOSIG

EXPIRED METARs :
  • 011330Z 00000KT 9999 FEW025 SCT035 16/08 Q1013 NOSIG
  • 011300Z 23003KT 9999 FEW025 16/09 Q1013 NOSIG
  • 011230Z VRB02KT 9999 FEW025 16/09 Q1013 NOSIG
  • 011200Z VRB02KT 9999 FEW025 15/09 Q1013 NOSIG
  • 011130Z 25003KT 9999 FEW025 15/09 Q1014 NOSIG

TAF AMD TAF LEAL
Valid from the 01 at 12:00 until the 02 at 12:00 UTC


011258Z 0112/0212 VRB04KT 9999 FEW025 TX15/0112Z TN10/0207Z
TEMPO 0112/0202 4000 SHRA FEW020TCU
PROB30
TEMPO 0118/0202 3000 TSRA FEW020CB
BECMG 0121/0123 03015KT
TEMPO 0123/0207 04020G30KT



MET'MAP, your aeronautical weather chart ! - Copyright ORBIFLY December 2007 - Disclaimer

ORBIFLY MET'MAP TEAM :

Programming & Development : Alexandra Zaïnal
Original concept : Baudouin d'Aumeries
Technical & hardware support : Manuel Goepfert
Assistance : Marc-Olivier Méhu




SOURCES & CREDITS :

   NOAA